sensor_id;sensor_type;location;lat;lon;timestamp;P1;durP1;ratioP1;P2;durP2;ratioP2
81191;SDS011;70665;47.652;-2.730;2024-01-11T00:01:17;29.60;;;15.43;;
81191;SDS011;70665;47.652;-2.730;2024-01-11T00:03:43;30.58;;;15.77;;
81191;SDS011;70665;47.652;-2.730;2024-01-11T00:06:08;31.23;;;15.63;;
81191;SDS011;70665;47.652;-2.730;2024-01-11T00:08:34;36.25;;;15.82;;
81191;SDS011;70665;47.652;-2.730;2024-01-11T00:11:00;33.60;;;16.77;;
81191;SDS011;70665;47.652;-2.730;2024-01-11T00:13:25;34.22;;;15.13;;
81191;SDS011;70665;47.652;-2.730;2024-01-11T00:15:51;32.50;;;16.65;;
81191;SDS011;70665;47.652;-2.730;2024-01-11T00:20:44;34.38;;;14.73;;
81191;SDS011;70665;47.652;-2.730;2024-01-11T00:23:09;33.38;;;14.88;;
81191;SDS011;70665;47.652;-2.730;2024-01-11T00:25:35;32.22;;;15.95;;
81191;SDS011;70665;47.652;-2.730;2024-01-11T00:28:01;35.05;;;16.23;;
81191;SDS011;70665;47.652;-2.730;2024-01-11T00:30:27;33.40;;;15.45;;
81191;SDS011;70665;47.652;-2.730;2024-01-11T00:32:52;33.22;;;16.60;;
81191;SDS011;70665;47.652;-2.730;2024-01-11T00:35:18;28.50;;;15.05;;
81191;SDS011;70665;47.652;-2.730;2024-01-11T00:37:44;34.92;;;14.27;;
81191;SDS011;70665;47.652;-2.730;2024-01-11T00:40:10;33.45;;;15.27;;
81191;SDS011;70665;47.652;-2.730;2024-01-11T00:42:36;30.67;;;15.57;;
81191;SDS011;70665;47.652;-2.730;2024-01-11T00:45:01;32.40;;;14.80;;
81191;SDS011;70665;47.652;-2.730;2024-01-11T00:47:27;30.02;;;14.85;;
81191;SDS011;70665;47.652;-2.730;2024-01-11T00:49:53;32.40;;;15.85;;
81191;SDS011;70665;47.652;-2.730;2024-01-11T00:52:19;26.85;;;14.52;;
81191;SDS011;70665;47.652;-2.730;2024-01-11T00:54:44;29.90;;;14.32;;
81191;SDS011;70665;47.652;-2.730;2024-01-11T00:57:10;30.23;;;13.63;;
81191;SDS011;70665;47.652;-2.730;2024-01-11T00:59:35;31.85;;;15.40;;
81191;SDS011;70665;47.652;-2.730;2024-01-11T01:02:01;28.25;;;13.20;;
81191;SDS011;70665;47.652;-2.730;2024-01-11T01:04:27;28.67;;;14.40;;
81191;SDS011;70665;47.652;-2.730;2024-01-11T01:06:52;25.13;;;13.57;;
81191;SDS011;70665;47.652;-2.730;2024-01-11T01:09:18;27.30;;;14.30;;
81191;SDS011;70665;47.652;-2.730;2024-01-11T01:11:43;27.08;;;13.82;;
81191;SDS011;70665;47.652;-2.730;2024-01-11T01:14:09;28.42;;;14.18;;
81191;SDS011;70665;47.652;-2.730;2024-01-11T01:16:35;27.60;;;14.20;;
81191;SDS011;70665;47.652;-2.730;2024-01-11T01:19:00;26.42;;;13.52;;
81191;SDS011;70665;47.652;-2.730;2024-01-11T01:21:26;26.35;;;14.05;;
81191;SDS011;70665;47.652;-2.730;2024-01-11T01:23:51;29.33;;;14.43;;
81191;SDS011;70665;47.652;-2.730;2024-01-11T01:26:17;26.33;;;15.20;;
81191;SDS011;70665;47.652;-2.730;2024-01-11T01:28:43;27.10;;;14.55;;
81191;SDS011;70665;47.652;-2.730;2024-01-11T01:31:09;31.42;;;14.85;;
81191;SDS011;70665;47.652;-2.730;2024-01-11T01:33:35;31.17;;;15.02;;
81191;SDS011;70665;47.652;-2.730;2024-01-11T01:36:01;28.85;;;12.93;;
81191;SDS011;70665;47.652;-2.730;2024-01-11T01:38:26;28.35;;;14.07;;
81191;SDS011;70665;47.652;-2.730;2024-01-11T01:40:53;26.27;;;13.38;;
81191;SDS011;70665;47.652;-2.730;2024-01-11T01:43:19;26.45;;;14.13;;
81191;SDS011;70665;47.652;-2.730;2024-01-11T01:45:44;31.73;;;14.73;;
81191;SDS011;70665;47.652;-2.730;2024-01-11T01:48:10;27.27;;;13.80;;
81191;SDS011;70665;47.652;-2.730;2024-01-11T01:50:36;27.55;;;13.55;;
81191;SDS011;70665;47.652;-2.730;2024-01-11T01:53:02;30.95;;;14.48;;
81191;SDS011;70665;47.652;-2.730;2024-01-11T01:55:28;30.02;;;13.75;;
81191;SDS011;70665;47.652;-2.730;2024-01-11T01:57:54;28.40;;;13.50;;
81191;SDS011;70665;47.652;-2.730;2024-01-11T02:00:20;26.63;;;13.55;;
81191;SDS011;70665;47.652;-2.730;2024-01-11T02:02:47;28.02;;;13.80;;
81191;SDS011;70665;47.652;-2.730;2024-01-11T02:05:15;28.73;;;14.10;;
81191;SDS011;70665;47.652;-2.730;2024-01-11T02:07:42;30.88;;;14.57;;
81191;SDS011;70665;47.652;-2.730;2024-01-11T02:10:09;28.05;;;14.20;;
81191;SDS011;70665;47.652;-2.730;2024-01-11T02:12:35;28.65;;;14.30;;
81191;SDS011;70665;47.652;-2.730;2024-01-11T02:15:02;28.90;;;14.20;;
81191;SDS011;70665;47.652;-2.730;2024-01-11T02:17:29;27.38;;;14.05;;
81191;SDS011;70665;47.652;-2.730;2024-01-11T02:19:58;27.33;;;14.18;;
81191;SDS011;70665;47.652;-2.730;2024-01-11T02:22:24;28.85;;;14.43;;
81191;SDS011;70665;47.652;-2.730;2024-01-11T02:24:54;27.50;;;14.07;;
81191;SDS011;70665;47.652;-2.730;2024-01-11T02:27:21;28.23;;;13.13;;
81191;SDS011;70665;47.652;-2.730;2024-01-11T02:29:46;28.02;;;13.65;;
81191;SDS011;70665;47.652;-2.730;2024-01-11T02:32:12;26.45;;;12.68;;
81191;SDS011;70665;47.652;-2.730;2024-01-11T02:34:38;28.02;;;15.02;;
81191;SDS011;70665;47.652;-2.730;2024-01-11T02:37:04;29.40;;;14.25;;
81191;SDS011;70665;47.652;-2.730;2024-01-11T02:39:30;26.95;;;13.95;;
81191;SDS011;70665;47.652;-2.730;2024-01-11T02:41:56;32.50;;;15.25;;
81191;SDS011;70665;47.652;-2.730;2024-01-11T02:44:23;25.95;;;13.60;;
81191;SDS011;70665;47.652;-2.730;2024-01-11T02:46:49;24.17;;;13.20;;
81191;SDS011;70665;47.652;-2.730;2024-01-11T02:49:15;28.08;;;12.63;;
81191;SDS011;70665;47.652;-2.730;2024-01-11T02:51:41;30.92;;;14.07;;
81191;SDS011;70665;47.652;-2.730;2024-01-11T02:54:06;26.75;;;13.20;;
81191;SDS011;70665;47.652;-2.730;2024-01-11T02:56:32;29.58;;;14.73;;
81191;SDS011;70665;47.652;-2.730;2024-01-11T02:58:57;28.23;;;14.25;;
81191;SDS011;70665;47.652;-2.730;2024-01-11T03:01:23;27.98;;;14.48;;
81191;SDS011;70665;47.652;-2.730;2024-01-11T03:03:49;31.13;;;14.57;;
81191;SDS011;70665;47.652;-2.730;2024-01-11T03:06:14;24.63;;;13.57;;
81191;SDS011;70665;47.652;-2.730;2024-01-11T03:08:42;29.67;;;14.93;;
81191;SDS011;70665;47.652;-2.730;2024-01-11T03:11:08;27.95;;;13.35;;
81191;SDS011;70665;47.652;-2.730;2024-01-11T03:13:33;29.95;;;15.20;;
81191;SDS011;70665;47.652;-2.730;2024-01-11T03:15:59;30.90;;;15.15;;
81191;SDS011;70665;47.652;-2.730;2024-01-11T03:18:25;29.73;;;15.55;;
81191;SDS011;70665;47.652;-2.730;2024-01-11T03:20:50;32.20;;;15.95;;
81191;SDS011;70665;47.652;-2.730;2024-01-11T03:23:16;29.52;;;14.68;;
81191;SDS011;70665;47.652;-2.730;2024-01-11T03:25:41;29.90;;;15.52;;
81191;SDS011;70665;47.652;-2.730;2024-01-11T03:28:07;30.55;;;15.50;;
81191;SDS011;70665;47.652;-2.730;2024-01-11T03:30:33;30.15;;;15.93;;
81191;SDS011;70665;47.652;-2.730;2024-01-11T03:32:58;27.45;;;13.82;;
81191;SDS011;70665;47.652;-2.730;2024-01-11T03:35:24;28.10;;;14.82;;
81191;SDS011;70665;47.652;-2.730;2024-01-11T03:37:49;28.67;;;14.52;;
81191;SDS011;70665;47.652;-2.730;2024-01-11T03:42:42;32.65;;;14.45;;
81191;SDS011;70665;47.652;-2.730;2024-01-11T03:45:08;28.52;;;14.55;;
81191;SDS011;70665;47.652;-2.730;2024-01-11T03:47:34;28.83;;;15.55;;
81191;SDS011;70665;47.652;-2.730;2024-01-11T03:50:00;30.15;;;14.85;;
81191;SDS011;70665;47.652;-2.730;2024-01-11T03:52:25;29.30;;;15.95;;
81191;SDS011;70665;47.652;-2.730;2024-01-11T03:54:51;29.83;;;14.13;;
81191;SDS011;70665;47.652;-2.730;2024-01-11T03:57:17;31.67;;;14.32;;
81191;SDS011;70665;47.652;-2.730;2024-01-11T03:59:42;33.28;;;15.23;;
81191;SDS011;70665;47.652;-2.730;2024-01-11T04:02:08;31.92;;;15.25;;
81191;SDS011;70665;47.652;-2.730;2024-01-11T04:04:34;31.35;;;15.00;;
81191;SDS011;70665;47.652;-2.730;2024-01-11T04:07:00;33.75;;;16.20;;
81191;SDS011;70665;47.652;-2.730;2024-01-11T04:09:25;32.35;;;15.05;;
81191;SDS011;70665;47.652;-2.730;2024-01-11T04:11:51;35.63;;;16.17;;
81191;SDS011;70665;47.652;-2.730;2024-01-11T04:14:16;33.88;;;15.95;;
81191;SDS011;70665;47.652;-2.730;2024-01-11T04:16:42;33.03;;;15.80;;
81191;SDS011;70665;47.652;-2.730;2024-01-11T04:19:08;36.50;;;15.85;;
81191;SDS011;70665;47.652;-2.730;2024-01-11T04:21:35;30.05;;;16.23;;
81191;SDS011;70665;47.652;-2.730;2024-01-11T04:24:03;35.42;;;16.27;;
81191;SDS011;70665;47.652;-2.730;2024-01-11T04:26:30;34.50;;;17.45;;
81191;SDS011;70665;47.652;-2.730;2024-01-11T04:28:56;31.98;;;15.73;;
81191;SDS011;70665;47.652;-2.730;2024-01-11T04:31:23;31.85;;;16.70;;
81191;SDS011;70665;47.652;-2.730;2024-01-11T04:33:49;31.42;;;14.90;;
81191;SDS011;70665;47.652;-2.730;2024-01-11T04:36:14;33.47;;;15.75;;
81191;SDS011;70665;47.652;-2.730;2024-01-11T04:38:40;36.85;;;16.35;;
81191;SDS011;70665;47.652;-2.730;2024-01-11T04:41:09;34.25;;;15.73;;
81191;SDS011;70665;47.652;-2.730;2024-01-11T04:43:42;33.75;;;16.65;;
81191;SDS011;70665;47.652;-2.730;2024-01-11T04:46:27;32.40;;;16.42;;
81191;SDS011;70665;47.652;-2.730;2024-01-11T04:48:53;31.75;;;16.27;;
81191;SDS011;70665;47.652;-2.730;2024-01-11T04:51:19;35.10;;;16.98;;
81191;SDS011;70665;47.652;-2.730;2024-01-11T04:53:45;30.15;;;15.98;;
81191;SDS011;70665;47.652;-2.730;2024-01-11T04:56:11;39.47;;;17.52;;
81191;SDS011;70665;47.652;-2.730;2024-01-11T04:58:39;31.92;;;16.13;;
81191;SDS011;70665;47.652;-2.730;2024-01-11T05:01:06;31.30;;;16.63;;
81191;SDS011;70665;47.652;-2.730;2024-01-11T05:03:36;31.80;;;15.52;;
81191;SDS011;70665;47.652;-2.730;2024-01-11T05:06:01;34.33;;;17.55;;
81191;SDS011;70665;47.652;-2.730;2024-01-11T05:08:27;31.73;;;17.10;;
81191;SDS011;70665;47.652;-2.730;2024-01-11T05:10:53;32.38;;;16.20;;
81191;SDS011;70665;47.652;-2.730;2024-01-11T05:13:19;34.40;;;17.67;;
81191;SDS011;70665;47.652;-2.730;2024-01-11T05:15:45;34.50;;;16.48;;
81191;SDS011;70665;47.652;-2.730;2024-01-11T05:18:11;32.42;;;16.83;;
81191;SDS011;70665;47.652;-2.730;2024-01-11T05:20:37;34.05;;;17.13;;
81191;SDS011;70665;47.652;-2.730;2024-01-11T05:23:03;33.50;;;16.52;;
81191;SDS011;70665;47.652;-2.730;2024-01-11T05:25:29;31.02;;;14.52;;
81191;SDS011;70665;47.652;-2.730;2024-01-11T05:27:58;32.55;;;16.90;;
81191;SDS011;70665;47.652;-2.730;2024-01-11T05:30:28;32.13;;;15.55;;
81191;SDS011;70665;47.652;-2.730;2024-01-11T05:32:54;30.98;;;16.60;;
81191;SDS011;70665;47.652;-2.730;2024-01-11T05:35:20;33.63;;;17.17;;
81191;SDS011;70665;47.652;-2.730;2024-01-11T05:37:47;32.95;;;17.20;;
81191;SDS011;70665;47.652;-2.730;2024-01-11T05:40:12;31.48;;;16.90;;
81191;SDS011;70665;47.652;-2.730;2024-01-11T05:42:38;34.22;;;16.02;;
81191;SDS011;70665;47.652;-2.730;2024-01-11T05:45:04;32.47;;;16.75;;
81191;SDS011;70665;47.652;-2.730;2024-01-11T05:47:30;32.47;;;17.13;;
81191;SDS011;70665;47.652;-2.730;2024-01-11T05:49:56;28.25;;;16.00;;
81191;SDS011;70665;47.652;-2.730;2024-01-11T05:52:22;30.42;;;16.55;;
81191;SDS011;70665;47.652;-2.730;2024-01-11T05:54:47;35.10;;;16.83;;
81191;SDS011;70665;47.652;-2.730;2024-01-11T05:57:13;37.35;;;17.00;;
81191;SDS011;70665;47.652;-2.730;2024-01-11T05:59:48;34.90;;;16.92;;
81191;SDS011;70665;47.652;-2.730;2024-01-11T06:02:14;30.05;;;15.85;;
81191;SDS011;70665;47.652;-2.730;2024-01-11T06:04:40;31.60;;;15.25;;
81191;SDS011;70665;47.652;-2.730;2024-01-11T06:07:05;37.28;;;17.70;;
81191;SDS011;70665;47.652;-2.730;2024-01-11T06:09:31;37.42;;;16.63;;
81191;SDS011;70665;47.652;-2.730;2024-01-11T06:11:57;33.60;;;16.60;;
81191;SDS011;70665;47.652;-2.730;2024-01-11T06:14:22;34.10;;;16.48;;
81191;SDS011;70665;47.652;-2.730;2024-01-11T06:16:48;35.08;;;17.75;;
81191;SDS011;70665;47.652;-2.730;2024-01-11T06:19:13;35.92;;;17.02;;
81191;SDS011;70665;47.652;-2.730;2024-01-11T06:21:39;33.28;;;16.02;;
81191;SDS011;70665;47.652;-2.730;2024-01-11T06:24:05;31.55;;;16.38;;
81191;SDS011;70665;47.652;-2.730;2024-01-11T06:26:30;34.95;;;17.38;;
81191;SDS011;70665;47.652;-2.730;2024-01-11T06:28:56;33.70;;;16.65;;
81191;SDS011;70665;47.652;-2.730;2024-01-11T06:31:21;31.92;;;16.40;;
81191;SDS011;70665;47.652;-2.730;2024-01-11T06:33:47;33.22;;;18.42;;
81191;SDS011;70665;47.652;-2.730;2024-01-11T06:36:13;34.70;;;16.13;;
81191;SDS011;70665;47.652;-2.730;2024-01-11T06:38:38;38.03;;;16.80;;
81191;SDS011;70665;47.652;-2.730;2024-01-11T06:41:04;35.65;;;16.25;;
81191;SDS011;70665;47.652;-2.730;2024-01-11T06:43:30;33.22;;;16.58;;
81191;SDS011;70665;47.652;-2.730;2024-01-11T06:45:55;31.25;;;16.70;;
81191;SDS011;70665;47.652;-2.730;2024-01-11T06:48:21;31.50;;;15.63;;
81191;SDS011;70665;47.652;-2.730;2024-01-11T06:50:46;36.30;;;16.58;;
81191;SDS011;70665;47.652;-2.730;2024-01-11T06:53:12;27.85;;;15.10;;
81191;SDS011;70665;47.652;-2.730;2024-01-11T06:55:38;30.75;;;15.18;;
81191;SDS011;70665;47.652;-2.730;2024-01-11T06:58:06;34.05;;;15.27;;
81191;SDS011;70665;47.652;-2.730;2024-01-11T07:00:31;29.00;;;16.15;;
81191;SDS011;70665;47.652;-2.730;2024-01-11T07:02:57;32.38;;;15.98;;
81191;SDS011;70665;47.652;-2.730;2024-01-11T07:05:22;33.38;;;16.63;;
81191;SDS011;70665;47.652;-2.730;2024-01-11T07:07:48;35.35;;;16.60;;
81191;SDS011;70665;47.652;-2.730;2024-01-11T07:10:13;34.75;;;16.00;;
81191;SDS011;70665;47.652;-2.730;2024-01-11T07:12:40;33.20;;;15.57;;
81191;SDS011;70665;47.652;-2.730;2024-01-11T07:15:08;32.85;;;15.93;;
81191;SDS011;70665;47.652;-2.730;2024-01-11T07:17:33;36.80;;;16.08;;
81191;SDS011;70665;47.652;-2.730;2024-01-11T07:19:59;33.50;;;15.93;;
81191;SDS011;70665;47.652;-2.730;2024-01-11T07:22:25;29.60;;;14.90;;
81191;SDS011;70665;47.652;-2.730;2024-01-11T07:24:51;35.83;;;15.43;;
81191;SDS011;70665;47.652;-2.730;2024-01-11T07:27:17;33.63;;;16.10;;
81191;SDS011;70665;47.652;-2.730;2024-01-11T07:29:43;29.02;;;14.63;;
81191;SDS011;70665;47.652;-2.730;2024-01-11T07:32:08;30.58;;;14.20;;
81191;SDS011;70665;47.652;-2.730;2024-01-11T07:34:34;29.08;;;15.20;;
81191;SDS011;70665;47.652;-2.730;2024-01-11T07:37:00;28.92;;;14.15;;
81191;SDS011;70665;47.652;-2.730;2024-01-11T07:39:25;33.33;;;16.77;;
81191;SDS011;70665;47.652;-2.730;2024-01-11T07:41:51;30.65;;;15.52;;
81191;SDS011;70665;47.652;-2.730;2024-01-11T07:44:17;30.10;;;15.77;;
81191;SDS011;70665;47.652;-2.730;2024-01-11T07:46:43;28.17;;;15.15;;
81191;SDS011;70665;47.652;-2.730;2024-01-11T07:49:09;31.23;;;13.82;;
81191;SDS011;70665;47.652;-2.730;2024-01-11T07:51:35;29.85;;;14.40;;
81191;SDS011;70665;47.652;-2.730;2024-01-11T07:54:01;32.45;;;16.02;;
81191;SDS011;70665;47.652;-2.730;2024-01-11T07:56:27;31.58;;;14.10;;
81191;SDS011;70665;47.652;-2.730;2024-01-11T07:58:54;28.17;;;14.65;;
81191;SDS011;70665;47.652;-2.730;2024-01-11T08:01:19;31.08;;;14.70;;
81191;SDS011;70665;47.652;-2.730;2024-01-11T08:03:45;34.28;;;16.45;;
81191;SDS011;70665;47.652;-2.730;2024-01-11T08:08:37;27.73;;;15.90;;
81191;SDS011;70665;47.652;-2.730;2024-01-11T08:11:09;29.10;;;15.90;;
81191;SDS011;70665;47.652;-2.730;2024-01-11T08:13:38;27.10;;;14.82;;
81191;SDS011;70665;47.652;-2.730;2024-01-11T08:16:04;27.60;;;14.40;;
81191;SDS011;70665;47.652;-2.730;2024-01-11T08:18:32;30.58;;;14.52;;
81191;SDS011;70665;47.652;-2.730;2024-01-11T08:20:58;33.33;;;15.35;;
81191;SDS011;70665;47.652;-2.730;2024-01-11T08:23:24;31.00;;;15.57;;
81191;SDS011;70665;47.652;-2.730;2024-01-11T08:25:49;39.35;;;23.95;;
81191;SDS011;70665;47.652;-2.730;2024-01-11T08:28:15;28.85;;;15.18;;
81191;SDS011;70665;47.652;-2.730;2024-01-11T08:30:40;32.22;;;14.90;;
81191;SDS011;70665;47.652;-2.730;2024-01-11T08:33:07;30.35;;;14.20;;
81191;SDS011;70665;47.652;-2.730;2024-01-11T08:35:33;31.00;;;15.25;;
81191;SDS011;70665;47.652;-2.730;2024-01-11T08:37:58;30.00;;;14.63;;
81191;SDS011;70665;47.652;-2.730;2024-01-11T08:40:24;31.00;;;14.95;;
81191;SDS011;70665;47.652;-2.730;2024-01-11T08:42:50;30.63;;;13.88;;
81191;SDS011;70665;47.652;-2.730;2024-01-11T08:45:16;28.10;;;15.18;;
81191;SDS011;70665;47.652;-2.730;2024-01-11T08:50:11;30.38;;;15.07;;
81191;SDS011;70665;47.652;-2.730;2024-01-11T08:52:38;28.63;;;14.82;;
81191;SDS011;70665;47.652;-2.730;2024-01-11T08:55:04;29.05;;;15.13;;
81191;SDS011;70665;47.652;-2.730;2024-01-11T08:57:30;28.58;;;15.38;;
81191;SDS011;70665;47.652;-2.730;2024-01-11T08:59:56;35.65;;;16.63;;
81191;SDS011;70665;47.652;-2.730;2024-01-11T09:02:22;32.08;;;15.02;;
81191;SDS011;70665;47.652;-2.730;2024-01-11T09:04:48;31.38;;;13.55;;
81191;SDS011;70665;47.652;-2.730;2024-01-11T09:07:13;34.05;;;15.45;;
81191;SDS011;70665;47.652;-2.730;2024-01-11T09:09:40;26.50;;;13.70;;
81191;SDS011;70665;47.652;-2.730;2024-01-11T09:12:06;32.28;;;15.07;;
81191;SDS011;70665;47.652;-2.730;2024-01-11T09:14:32;29.70;;;14.50;;
81191;SDS011;70665;47.652;-2.730;2024-01-11T09:16:57;29.30;;;14.32;;
81191;SDS011;70665;47.652;-2.730;2024-01-11T09:19:23;34.63;;;15.50;;
81191;SDS011;70665;47.652;-2.730;2024-01-11T09:21:49;28.63;;;14.85;;
81191;SDS011;70665;47.652;-2.730;2024-01-11T09:24:14;31.52;;;13.85;;
81191;SDS011;70665;47.652;-2.730;2024-01-11T09:26:40;29.13;;;14.98;;
81191;SDS011;70665;47.652;-2.730;2024-01-11T09:29:06;26.67;;;13.48;;
81191;SDS011;70665;47.652;-2.730;2024-01-11T09:31:31;29.02;;;13.80;;
81191;SDS011;70665;47.652;-2.730;2024-01-11T09:33:57;29.85;;;15.45;;
81191;SDS011;70665;47.652;-2.730;2024-01-11T09:36:23;31.85;;;14.38;;
81191;SDS011;70665;47.652;-2.730;2024-01-11T09:38:48;28.05;;;15.32;;
81191;SDS011;70665;47.652;-2.730;2024-01-11T09:41:14;30.50;;;16.35;;
81191;SDS011;70665;47.652;-2.730;2024-01-11T09:43:42;31.25;;;14.98;;
81191;SDS011;70665;47.652;-2.730;2024-01-11T09:46:09;30.08;;;15.55;;
81191;SDS011;70665;47.652;-2.730;2024-01-11T09:48:37;30.10;;;14.65;;
81191;SDS011;70665;47.652;-2.730;2024-01-11T09:51:10;29.67;;;14.95;;
81191;SDS011;70665;47.652;-2.730;2024-01-11T09:53:36;32.25;;;17.00;;
81191;SDS011;70665;47.652;-2.730;2024-01-11T09:56:05;31.08;;;14.55;;
81191;SDS011;70665;47.652;-2.730;2024-01-11T09:58:34;34.40;;;15.05;;
81191;SDS011;70665;47.652;-2.730;2024-01-11T10:01:04;29.73;;;14.30;;
81191;SDS011;70665;47.652;-2.730;2024-01-11T10:03:34;28.42;;;15.18;;
81191;SDS011;70665;47.652;-2.730;2024-01-11T10:05:59;28.67;;;15.35;;
81191;SDS011;70665;47.652;-2.730;2024-01-11T10:08:27;29.88;;;14.75;;
81191;SDS011;70665;47.652;-2.730;2024-01-11T10:10:55;28.65;;;13.43;;
81191;SDS011;70665;47.652;-2.730;2024-01-11T10:13:26;31.83;;;16.17;;
81191;SDS011;70665;47.652;-2.730;2024-01-11T10:16:00;25.23;;;14.85;;
81191;SDS011;70665;47.652;-2.730;2024-01-11T10:18:38;27.08;;;13.75;;
81191;SDS011;70665;47.652;-2.730;2024-01-11T10:21:04;29.45;;;14.52;;
81191;SDS011;70665;47.652;-2.730;2024-01-11T10:23:32;28.48;;;14.27;;
81191;SDS011;70665;47.652;-2.730;2024-01-11T10:25:59;33.30;;;15.15;;
81191;SDS011;70665;47.652;-2.730;2024-01-11T10:30:51;27.73;;;13.60;;
81191;SDS011;70665;47.652;-2.730;2024-01-11T10:33:21;28.95;;;14.48;;
81191;SDS011;70665;47.652;-2.730;2024-01-11T10:35:47;29.55;;;14.93;;
81191;SDS011;70665;47.652;-2.730;2024-01-11T10:38:16;28.83;;;14.60;;
81191;SDS011;70665;47.652;-2.730;2024-01-11T10:40:43;31.73;;;15.00;;
81191;SDS011;70665;47.652;-2.730;2024-01-11T10:43:09;29.30;;;15.18;;
81191;SDS011;70665;47.652;-2.730;2024-01-11T10:45:40;31.77;;;15.65;;
81191;SDS011;70665;47.652;-2.730;2024-01-11T10:48:13;27.85;;;15.00;;
81191;SDS011;70665;47.652;-2.730;2024-01-11T10:50:43;34.42;;;16.02;;
81191;SDS011;70665;47.652;-2.730;2024-01-11T10:55:51;31.35;;;14.82;;
81191;SDS011;70665;47.652;-2.730;2024-01-11T10:58:17;33.45;;;16.38;;
81191;SDS011;70665;47.652;-2.730;2024-01-11T11:00:45;30.42;;;16.33;;
81191;SDS011;70665;47.652;-2.730;2024-01-11T11:03:12;26.88;;;14.43;;
81191;SDS011;70665;47.652;-2.730;2024-01-11T11:05:39;30.20;;;14.60;;
81191;SDS011;70665;47.652;-2.730;2024-01-11T11:08:06;26.13;;;14.65;;
81191;SDS011;70665;47.652;-2.730;2024-01-11T11:10:34;32.88;;;15.25;;
81191;SDS011;70665;47.652;-2.730;2024-01-11T11:13:01;27.63;;;14.68;;
81191;SDS011;70665;47.652;-2.730;2024-01-11T11:15:28;26.55;;;14.80;;
81191;SDS011;70665;47.652;-2.730;2024-01-11T11:17:54;29.67;;;15.90;;
81191;SDS011;70665;47.652;-2.730;2024-01-11T11:20:21;27.10;;;13.85;;
81191;SDS011;70665;47.652;-2.730;2024-01-11T11:23:03;26.10;;;13.07;;
81191;SDS011;70665;47.652;-2.730;2024-01-11T11:25:32;27.25;;;14.48;;
81191;SDS011;70665;47.652;-2.730;2024-01-11T11:27:59;25.33;;;14.38;;
81191;SDS011;70665;47.652;-2.730;2024-01-11T11:30:32;30.13;;;15.25;;
81191;SDS011;70665;47.652;-2.730;2024-01-11T11:33:10;29.40;;;14.55;;
81191;SDS011;70665;47.652;-2.730;2024-01-11T11:35:43;29.00;;;15.10;;
81191;SDS011;70665;47.652;-2.730;2024-01-11T11:38:16;32.75;;;16.70;;
81191;SDS011;70665;47.652;-2.730;2024-01-11T11:40:44;31.05;;;16.67;;
81191;SDS011;70665;47.652;-2.730;2024-01-11T11:43:12;29.88;;;15.20;;
81191;SDS011;70665;47.652;-2.730;2024-01-11T11:45:39;28.08;;;14.55;;
81191;SDS011;70665;47.652;-2.730;2024-01-11T11:51:09;28.38;;;15.15;;
81191;SDS011;70665;47.652;-2.730;2024-01-11T11:53:35;26.63;;;14.48;;
81191;SDS011;70665;47.652;-2.730;2024-01-11T11:56:01;23.70;;;13.95;;
81191;SDS011;70665;47.652;-2.730;2024-01-11T11:58:28;30.15;;;16.05;;
81191;SDS011;70665;47.652;-2.730;2024-01-11T12:00:57;27.25;;;15.23;;
81191;SDS011;70665;47.652;-2.730;2024-01-11T12:03:28;27.00;;;14.70;;
81191;SDS011;70665;47.652;-2.730;2024-01-11T12:05:55;27.90;;;14.45;;
81191;SDS011;70665;47.652;-2.730;2024-01-11T12:08:22;27.65;;;14.68;;
81191;SDS011;70665;47.652;-2.730;2024-01-11T12:10:48;24.02;;;13.80;;
81191;SDS011;70665;47.652;-2.730;2024-01-11T12:13:14;23.92;;;13.45;;
81191;SDS011;70665;47.652;-2.730;2024-01-11T12:15:40;22.05;;;13.90;;
81191;SDS011;70665;47.652;-2.730;2024-01-11T12:18:06;24.05;;;13.63;;
81191;SDS011;70665;47.652;-2.730;2024-01-11T12:20:32;25.00;;;14.02;;
81191;SDS011;70665;47.652;-2.730;2024-01-11T12:22:58;24.85;;;12.98;;
81191;SDS011;70665;47.652;-2.730;2024-01-11T12:25:24;25.73;;;13.93;;
81191;SDS011;70665;47.652;-2.730;2024-01-11T12:27:50;26.63;;;13.05;;
81191;SDS011;70665;47.652;-2.730;2024-01-11T12:30:17;26.15;;;13.55;;
81191;SDS011;70665;47.652;-2.730;2024-01-11T12:32:43;25.92;;;13.68;;
81191;SDS011;70665;47.652;-2.730;2024-01-11T12:35:09;29.70;;;14.57;;
81191;SDS011;70665;47.652;-2.730;2024-01-11T12:37:36;24.58;;;13.43;;
81191;SDS011;70665;47.652;-2.730;2024-01-11T12:40:01;32.53;;;13.80;;
81191;SDS011;70665;47.652;-2.730;2024-01-11T12:42:28;28.10;;;14.95;;
81191;SDS011;70665;47.652;-2.730;2024-01-11T12:44:54;26.42;;;13.82;;
81191;SDS011;70665;47.652;-2.730;2024-01-11T12:49:46;23.65;;;11.40;;
81191;SDS011;70665;47.652;-2.730;2024-01-11T12:52:21;24.35;;;12.95;;
81191;SDS011;70665;47.652;-2.730;2024-01-11T12:54:53;24.08;;;13.48;;
81191;SDS011;70665;47.652;-2.730;2024-01-11T12:57:19;22.90;;;12.32;;
81191;SDS011;70665;47.652;-2.730;2024-01-11T12:59:45;25.25;;;13.93;;
81191;SDS011;70665;47.652;-2.730;2024-01-11T13:04:39;22.65;;;12.43;;
81191;SDS011;70665;47.652;-2.730;2024-01-11T13:07:06;20.50;;;12.65;;
81191;SDS011;70665;47.652;-2.730;2024-01-11T13:09:32;21.27;;;11.80;;
81191;SDS011;70665;47.652;-2.730;2024-01-11T13:11:58;21.45;;;12.45;;
81191;SDS011;70665;47.652;-2.730;2024-01-11T13:14:25;24.88;;;13.75;;
81191;SDS011;70665;47.652;-2.730;2024-01-11T13:16:50;20.80;;;12.23;;
81191;SDS011;70665;47.652;-2.730;2024-01-11T13:19:16;23.60;;;13.30;;
81191;SDS011;70665;47.652;-2.730;2024-01-11T13:21:42;22.60;;;13.30;;
81191;SDS011;70665;47.652;-2.730;2024-01-11T13:24:07;24.52;;;12.90;;
81191;SDS011;70665;47.652;-2.730;2024-01-11T13:26:35;22.73;;;12.65;;
81191;SDS011;70665;47.652;-2.730;2024-01-11T13:29:04;21.80;;;13.55;;
81191;SDS011;70665;47.652;-2.730;2024-01-11T13:31:30;23.98;;;14.38;;
81191;SDS011;70665;47.652;-2.730;2024-01-11T13:33:56;24.10;;;14.57;;
81191;SDS011;70665;47.652;-2.730;2024-01-11T13:36:22;22.85;;;14.18;;
81191;SDS011;70665;47.652;-2.730;2024-01-11T13:41:18;24.13;;;13.15;;
81191;SDS011;70665;47.652;-2.730;2024-01-11T13:43:43;25.40;;;14.15;;
81191;SDS011;70665;47.652;-2.730;2024-01-11T13:46:09;23.58;;;12.75;;
81191;SDS011;70665;47.652;-2.730;2024-01-11T13:48:36;23.20;;;12.88;;
81191;SDS011;70665;47.652;-2.730;2024-01-11T13:51:03;24.05;;;13.30;;
81191;SDS011;70665;47.652;-2.730;2024-01-11T13:53:29;22.40;;;12.90;;
81191;SDS011;70665;47.652;-2.730;2024-01-11T13:55:55;23.08;;;14.77;;
81191;SDS011;70665;47.652;-2.730;2024-01-11T13:58:22;23.35;;;12.98;;
81191;SDS011;70665;47.652;-2.730;2024-01-11T14:00:48;22.58;;;13.35;;
81191;SDS011;70665;47.652;-2.730;2024-01-11T14:03:13;24.65;;;13.57;;
81191;SDS011;70665;47.652;-2.730;2024-01-11T14:05:39;22.30;;;13.07;;
81191;SDS011;70665;47.652;-2.730;2024-01-11T14:08:05;23.60;;;14.10;;
81191;SDS011;70665;47.652;-2.730;2024-01-11T14:10:32;22.73;;;13.35;;
81191;SDS011;70665;47.652;-2.730;2024-01-11T14:13:01;23.63;;;13.50;;
81191;SDS011;70665;47.652;-2.730;2024-01-11T14:15:28;20.85;;;12.77;;
81191;SDS011;70665;47.652;-2.730;2024-01-11T14:17:53;23.88;;;14.18;;
81191;SDS011;70665;47.652;-2.730;2024-01-11T14:20:19;25.75;;;15.07;;
81191;SDS011;70665;47.652;-2.730;2024-01-11T14:22:46;25.00;;;14.63;;
81191;SDS011;70665;47.652;-2.730;2024-01-11T14:25:15;24.33;;;14.13;;
81191;SDS011;70665;47.652;-2.730;2024-01-11T14:27:41;23.67;;;13.70;;
81191;SDS011;70665;47.652;-2.730;2024-01-11T14:30:09;27.75;;;15.15;;